Portada
METAR-TAF:

METAR-TAF

Aeroports :

Hiroshima, Japó

latitud: 34-26N, longitud: 132-55E, altitud: 331 m

Observació

L'informe es va fer fa 52 minuts, a les 01:00 UTC
Vent 2 kt amb direcció variable
Temperatura 9°C
Humitat 57%
Pressió 1026 hPa
Visibilitat 10 km o més
Escasses núvols a una alçada de 4000 ft

METAR: RJOA 060100Z VRB02KT 9999 FEW040 09/01 Q1026

Hora: 10:52 (01:52 UTC)

Pronòstic

L'informe es va fer fa 2 hores i 47 minuts, a les 23:05 UTC
Pronòstic vàlid del 06 a les 00 UTC al 07 a les 06 UTC
Vent 5 kt del Oest/Nord-Oest
Visibilitat 10 km o més
Escasses núvols a una alçada de 3000 ft

TAF: RJOA 052305Z 0600/0706 30005KT 9999 FEW030

Observacions i pronòstics meteorològics de més de 4000 aeroports (METAR i TAF).

Les estacions disponibles són els punts grocs i vermells al mapa.

Posi el ratolí al punt desitjat per veure el nom de l'estació.

Feu clic per veure les observacions i els pronòstics meteorològics.

Per canviar el mapa: feu clic els botons verds amb una creu de color negre per apropar; al botó verd amb un guió per allunyar la imatge; o en les fletxes verdes per a mapes adjacents.


METAR-TAF: